sensor_id;sensor_type;location;lat;lon;timestamp;P1;durP1;ratioP1;P2;durP2;ratioP2
2175;SDS011;1094;49.902;10.876;2022-09-01T00:00:47;5.07;;;4.23;;
2175;SDS011;1094;49.902;10.876;2022-09-01T00:03:22;5.50;;;5.00;;
2175;SDS011;1094;49.902;10.876;2022-09-01T00:05:48;8.27;;;5.53;;
2175;SDS011;1094;49.902;10.876;2022-09-01T00:08:14;4.90;;;4.33;;
2175;SDS011;1094;49.902;10.876;2022-09-01T00:10:41;5.83;;;5.33;;
2175;SDS011;1094;49.902;10.876;2022-09-01T00:13:07;8.63;;;4.80;;
2175;SDS011;1094;49.902;10.876;2022-09-01T00:15:33;5.87;;;5.27;;
2175;SDS011;1094;49.902;10.876;2022-09-01T00:17:59;5.93;;;4.70;;
2175;SDS011;1094;49.902;10.876;2022-09-01T00:20:26;6.07;;;5.53;;
2175;SDS011;1094;49.902;10.876;2022-09-01T00:22:52;5.97;;;4.70;;
2175;SDS011;1094;49.902;10.876;2022-09-01T00:25:18;6.07;;;5.17;;
2175;SDS011;1094;49.902;10.876;2022-09-01T00:27:44;7.37;;;5.27;;
2175;SDS011;1094;49.902;10.876;2022-09-01T00:30:10;5.50;;;5.10;;
2175;SDS011;1094;49.902;10.876;2022-09-01T00:32:36;5.20;;;4.80;;
2175;SDS011;1094;49.902;10.876;2022-09-01T00:35:03;7.20;;;6.50;;
2175;SDS011;1094;49.902;10.876;2022-09-01T00:37:29;5.57;;;4.90;;
2175;SDS011;1094;49.902;10.876;2022-09-01T00:39:55;5.50;;;5.00;;
2175;SDS011;1094;49.902;10.876;2022-09-01T00:42:22;6.37;;;5.77;;
2175;SDS011;1094;49.902;10.876;2022-09-01T00:44:48;6.40;;;5.80;;
2175;SDS011;1094;49.902;10.876;2022-09-01T00:47:14;6.33;;;5.77;;
2175;SDS011;1094;49.902;10.876;2022-09-01T00:49:41;6.47;;;5.87;;
2175;SDS011;1094;49.902;10.876;2022-09-01T00:52:15;6.60;;;6.00;;
2175;SDS011;1094;49.902;10.876;2022-09-01T00:54:47;7.17;;;6.00;;
2175;SDS011;1094;49.902;10.876;2022-09-01T00:57:14;6.07;;;5.50;;
2175;SDS011;1094;49.902;10.876;2022-09-01T00:59:54;6.70;;;5.63;;
2175;SDS011;1094;49.902;10.876;2022-09-01T01:02:21;7.20;;;6.33;;
2175;SDS011;1094;49.902;10.876;2022-09-01T01:04:47;6.37;;;5.87;;
2175;SDS011;1094;49.902;10.876;2022-09-01T01:07:13;6.90;;;6.00;;
2175;SDS011;1094;49.902;10.876;2022-09-01T01:09:41;10.70;;;9.37;;
2175;SDS011;1094;49.902;10.876;2022-09-01T01:12:08;11.10;;;8.87;;
2175;SDS011;1094;49.902;10.876;2022-09-01T01:14:41;10.70;;;8.20;;
2175;SDS011;1094;49.902;10.876;2022-09-01T01:17:09;7.50;;;6.73;;
2175;SDS011;1094;49.902;10.876;2022-09-01T01:19:40;6.33;;;5.83;;
2175;SDS011;1094;49.902;10.876;2022-09-01T01:30:30;7.00;;;6.40;;
2175;SDS011;1094;49.902;10.876;2022-09-01T01:32:57;8.70;;;6.43;;
2175;SDS011;1094;49.902;10.876;2022-09-01T01:35:24;6.57;;;5.97;;
2175;SDS011;1094;49.902;10.876;2022-09-01T01:37:50;7.13;;;6.53;;
2175;SDS011;1094;49.902;10.876;2022-09-01T01:40:19;6.90;;;6.37;;
2175;SDS011;1094;49.902;10.876;2022-09-01T01:42:47;8.40;;;6.67;;
2175;SDS011;1094;49.902;10.876;2022-09-01T01:45:14;9.17;;;7.10;;
2175;SDS011;1094;49.902;10.876;2022-09-01T01:47:42;7.27;;;6.57;;
2175;SDS011;1094;49.902;10.876;2022-09-01T01:50:11;6.47;;;5.77;;
2175;SDS011;1094;49.902;10.876;2022-09-01T01:52:38;7.27;;;6.57;;
2175;SDS011;1094;49.902;10.876;2022-09-01T01:55:05;6.93;;;6.33;;
2175;SDS011;1094;49.902;10.876;2022-09-01T01:57:37;7.00;;;6.30;;
2175;SDS011;1094;49.902;10.876;2022-09-01T02:00:04;7.43;;;6.83;;
2175;SDS011;1094;49.902;10.876;2022-09-01T02:02:30;11.47;;;7.20;;
2175;SDS011;1094;49.902;10.876;2022-09-01T02:04:56;7.47;;;6.30;;
2175;SDS011;1094;49.902;10.876;2022-09-01T02:07:23;8.00;;;7.20;;
2175;SDS011;1094;49.902;10.876;2022-09-01T02:09:51;8.80;;;6.90;;
2175;SDS011;1094;49.902;10.876;2022-09-01T02:12:17;7.23;;;6.63;;
2175;SDS011;1094;49.902;10.876;2022-09-01T02:14:43;7.63;;;7.00;;
2175;SDS011;1094;49.902;10.876;2022-09-01T02:17:09;7.37;;;6.77;;
2175;SDS011;1094;49.902;10.876;2022-09-01T02:19:35;8.13;;;7.37;;
2175;SDS011;1094;49.902;10.876;2022-09-01T02:22:04;7.47;;;6.87;;
2175;SDS011;1094;49.902;10.876;2022-09-01T02:24:30;8.17;;;7.37;;
2175;SDS011;1094;49.902;10.876;2022-09-01T02:26:56;8.23;;;7.53;;
2175;SDS011;1094;49.902;10.876;2022-09-01T02:29:24;7.37;;;6.77;;
2175;SDS011;1094;49.902;10.876;2022-09-01T02:31:52;7.23;;;6.57;;
2175;SDS011;1094;49.902;10.876;2022-09-01T02:34:19;7.90;;;7.07;;
2175;SDS011;1094;49.902;10.876;2022-09-01T02:36:49;9.90;;;7.10;;
2175;SDS011;1094;49.902;10.876;2022-09-01T02:39:21;8.80;;;8.00;;
2175;SDS011;1094;49.902;10.876;2022-09-01T02:41:47;8.43;;;7.73;;
2175;SDS011;1094;49.902;10.876;2022-09-01T02:44:14;9.80;;;7.57;;
2175;SDS011;1094;49.902;10.876;2022-09-01T02:46:41;9.33;;;7.70;;
2175;SDS011;1094;49.902;10.876;2022-09-01T02:49:08;8.70;;;7.87;;
2175;SDS011;1094;49.902;10.876;2022-09-01T02:51:48;7.40;;;6.70;;
2175;SDS011;1094;49.902;10.876;2022-09-01T02:54:16;10.17;;;9.20;;
2175;SDS011;1094;49.902;10.876;2022-09-01T02:56:44;9.57;;;8.50;;
2175;SDS011;1094;49.902;10.876;2022-09-01T02:59:17;9.30;;;8.03;;
2175;SDS011;1094;49.902;10.876;2022-09-01T03:01:46;8.30;;;7.50;;
2175;SDS011;1094;49.902;10.876;2022-09-01T03:04:12;8.73;;;7.90;;
2175;SDS011;1094;49.902;10.876;2022-09-01T03:06:38;8.40;;;7.60;;
2175;SDS011;1094;49.902;10.876;2022-09-01T03:09:05;8.40;;;7.60;;
2175;SDS011;1094;49.902;10.876;2022-09-01T03:11:32;8.37;;;7.67;;
2175;SDS011;1094;49.902;10.876;2022-09-01T03:13:59;9.97;;;8.27;;
2175;SDS011;1094;49.902;10.876;2022-09-01T03:16:25;9.50;;;8.70;;
2175;SDS011;1094;49.902;10.876;2022-09-01T03:18:51;9.93;;;9.03;;
2175;SDS011;1094;49.902;10.876;2022-09-01T03:21:20;10.00;;;9.00;;
2175;SDS011;1094;49.902;10.876;2022-09-01T03:23:47;10.73;;;8.30;;
2175;SDS011;1094;49.902;10.876;2022-09-01T03:26:14;8.60;;;7.73;;
2175;SDS011;1094;49.902;10.876;2022-09-01T03:28:42;8.13;;;7.33;;
2175;SDS011;1094;49.902;10.876;2022-09-01T03:31:08;9.60;;;8.47;;
2175;SDS011;1094;49.902;10.876;2022-09-01T03:33:34;9.63;;;7.97;;
2175;SDS011;1094;49.902;10.876;2022-09-01T03:36:00;10.70;;;7.47;;
2175;SDS011;1094;49.902;10.876;2022-09-01T03:38:26;8.80;;;8.00;;
2175;SDS011;1094;49.902;10.876;2022-09-01T03:40:54;9.17;;;8.27;;
2175;SDS011;1094;49.902;10.876;2022-09-01T03:43:23;7.70;;;6.90;;
2175;SDS011;1094;49.902;10.876;2022-09-01T03:45:51;8.33;;;7.63;;
2175;SDS011;1094;49.902;10.876;2022-09-01T03:48:19;9.53;;;8.47;;
2175;SDS011;1094;49.902;10.876;2022-09-01T03:50:45;9.10;;;8.27;;
2175;SDS011;1094;49.902;10.876;2022-09-01T03:53:15;9.20;;;8.50;;
2175;SDS011;1094;49.902;10.876;2022-09-01T03:55:42;8.57;;;7.67;;
2175;SDS011;1094;49.902;10.876;2022-09-01T03:58:09;11.20;;;8.23;;
2175;SDS011;1094;49.902;10.876;2022-09-01T04:00:40;9.40;;;8.50;;
2175;SDS011;1094;49.902;10.876;2022-09-01T04:03:08;9.00;;;8.10;;
2175;SDS011;1094;49.902;10.876;2022-09-01T04:05:36;10.30;;;9.30;;
2175;SDS011;1094;49.902;10.876;2022-09-01T04:08:04;9.10;;;8.20;;
2175;SDS011;1094;49.902;10.876;2022-09-01T04:10:31;9.23;;;8.37;;
2175;SDS011;1094;49.902;10.876;2022-09-01T04:12:58;10.63;;;9.50;;
2175;SDS011;1094;49.902;10.876;2022-09-01T04:15:25;10.90;;;8.60;;
2175;SDS011;1094;49.902;10.876;2022-09-01T04:17:51;9.10;;;8.23;;
2175;SDS011;1094;49.902;10.876;2022-09-01T04:23:25;9.33;;;8.47;;
2175;SDS011;1094;49.902;10.876;2022-09-01T04:26:15;9.20;;;8.30;;
2175;SDS011;1094;49.902;10.876;2022-09-01T04:28:45;9.43;;;8.53;;
2175;SDS011;1094;49.902;10.876;2022-09-01T04:31:12;10.17;;;9.27;;
2175;SDS011;1094;49.902;10.876;2022-09-01T04:33:43;9.50;;;8.63;;
2175;SDS011;1094;49.902;10.876;2022-09-01T04:36:26;10.00;;;9.00;;
2175;SDS011;1094;49.902;10.876;2022-09-01T04:38:58;10.03;;;8.60;;
2175;SDS011;1094;49.902;10.876;2022-09-01T04:41:26;13.30;;;8.97;;
2175;SDS011;1094;49.902;10.876;2022-09-01T04:43:54;11.40;;;10.23;;
2175;SDS011;1094;49.902;10.876;2022-09-01T04:46:21;10.73;;;9.40;;
2175;SDS011;1094;49.902;10.876;2022-09-01T04:48:50;10.73;;;9.40;;
2175;SDS011;1094;49.902;10.876;2022-09-01T04:51:16;10.10;;;8.10;;
2175;SDS011;1094;49.902;10.876;2022-09-01T04:53:44;9.23;;;8.33;;
2175;SDS011;1094;49.902;10.876;2022-09-01T04:56:13;8.60;;;7.80;;
2175;SDS011;1094;49.902;10.876;2022-09-01T04:58:39;11.17;;;9.80;;
2175;SDS011;1094;49.902;10.876;2022-09-01T05:01:18;9.00;;;8.07;;
2175;SDS011;1094;49.902;10.876;2022-09-01T05:03:44;9.33;;;8.27;;
2175;SDS011;1094;49.902;10.876;2022-09-01T05:06:15;8.30;;;7.60;;
2175;SDS011;1094;49.902;10.876;2022-09-01T05:08:42;8.00;;;7.40;;
2175;SDS011;1094;49.902;10.876;2022-09-01T05:11:09;8.00;;;6.87;;
2175;SDS011;1094;49.902;10.876;2022-09-01T05:13:36;8.87;;;7.83;;
2175;SDS011;1094;49.902;10.876;2022-09-01T05:16:07;5.70;;;4.97;;
2175;SDS011;1094;49.902;10.876;2022-09-01T05:18:37;4.43;;;4.13;;
2175;SDS011;1094;49.902;10.876;2022-09-01T05:21:05;11.70;;;4.50;;
2175;SDS011;1094;49.902;10.876;2022-09-01T05:23:34;4.60;;;4.20;;
2175;SDS011;1094;49.902;10.876;2022-09-01T05:26:01;4.40;;;3.93;;
2175;SDS011;1094;49.902;10.876;2022-09-01T05:28:30;4.40;;;4.00;;
2175;SDS011;1094;49.902;10.876;2022-09-01T05:30:58;7.30;;;3.90;;
2175;SDS011;1094;49.902;10.876;2022-09-01T05:33:24;4.20;;;3.80;;
2175;SDS011;1094;49.902;10.876;2022-09-01T05:35:52;10.03;;;5.50;;
2175;SDS011;1094;49.902;10.876;2022-09-01T05:38:19;7.20;;;4.80;;
2175;SDS011;1094;49.902;10.876;2022-09-01T05:40:53;7.00;;;5.57;;
2175;SDS011;1094;49.902;10.876;2022-09-01T05:43:20;6.47;;;5.40;;
2175;SDS011;1094;49.902;10.876;2022-09-01T05:45:47;6.00;;;4.70;;
2175;SDS011;1094;49.902;10.876;2022-09-01T05:48:13;7.70;;;5.67;;
2175;SDS011;1094;49.902;10.876;2022-09-01T05:50:45;5.53;;;5.03;;
2175;SDS011;1094;49.902;10.876;2022-09-01T05:53:13;7.53;;;5.07;;
2175;SDS011;1094;49.902;10.876;2022-09-01T05:55:42;5.73;;;5.23;;
2175;SDS011;1094;49.902;10.876;2022-09-01T05:58:10;5.10;;;4.27;;
2175;SDS011;1094;49.902;10.876;2022-09-01T06:00:39;10.93;;;4.03;;
2175;SDS011;1094;49.902;10.876;2022-09-01T06:03:06;5.00;;;4.50;;
2175;SDS011;1094;49.902;10.876;2022-09-01T06:05:33;4.80;;;3.83;;
2175;SDS011;1094;49.902;10.876;2022-09-01T06:08:00;4.20;;;3.40;;
2175;SDS011;1094;49.902;10.876;2022-09-01T06:10:26;6.30;;;3.67;;
2175;SDS011;1094;49.902;10.876;2022-09-01T06:12:53;8.73;;;3.80;;
2175;SDS011;1094;49.902;10.876;2022-09-01T06:15:19;3.83;;;3.20;;
2175;SDS011;1094;49.902;10.876;2022-09-01T06:17:46;4.13;;;3.00;;
2175;SDS011;1094;49.902;10.876;2022-09-01T06:20:13;5.50;;;3.20;;
2175;SDS011;1094;49.902;10.876;2022-09-01T06:22:42;5.37;;;2.90;;
2175;SDS011;1094;49.902;10.876;2022-09-01T06:25:09;4.00;;;2.87;;
2175;SDS011;1094;49.902;10.876;2022-09-01T06:27:35;5.40;;;2.93;;
2175;SDS011;1094;49.902;10.876;2022-09-01T06:30:06;2.50;;;2.30;;
2175;SDS011;1094;49.902;10.876;2022-09-01T06:32:40;3.70;;;2.90;;
2175;SDS011;1094;49.902;10.876;2022-09-01T06:35:08;2.60;;;2.40;;
2175;SDS011;1094;49.902;10.876;2022-09-01T06:37:35;3.50;;;2.83;;
2175;SDS011;1094;49.902;10.876;2022-09-01T06:40:02;5.00;;;2.50;;
2175;SDS011;1094;49.902;10.876;2022-09-01T06:42:28;3.33;;;2.50;;
2175;SDS011;1094;49.902;10.876;2022-09-01T06:44:59;4.10;;;2.90;;
2175;SDS011;1094;49.902;10.876;2022-09-01T06:47:25;2.63;;;2.20;;
2175;SDS011;1094;49.902;10.876;2022-09-01T06:49:52;6.17;;;2.47;;
2175;SDS011;1094;49.902;10.876;2022-09-01T06:52:19;2.70;;;2.10;;
2175;SDS011;1094;49.902;10.876;2022-09-01T06:54:47;4.13;;;2.30;;
2175;SDS011;1094;49.902;10.876;2022-09-01T06:57:16;3.07;;;2.00;;
2175;SDS011;1094;49.902;10.876;2022-09-01T06:59:42;2.80;;;2.40;;
2175;SDS011;1094;49.902;10.876;2022-09-01T07:02:08;2.80;;;2.53;;
2175;SDS011;1094;49.902;10.876;2022-09-01T07:04:40;3.47;;;2.37;;
2175;SDS011;1094;49.902;10.876;2022-09-01T07:07:07;4.53;;;1.93;;
2175;SDS011;1094;49.902;10.876;2022-09-01T07:09:34;2.17;;;1.97;;
2175;SDS011;1094;49.902;10.876;2022-09-01T07:12:00;5.60;;;2.03;;
2175;SDS011;1094;49.902;10.876;2022-09-01T07:14:28;3.45;;;2.00;;
2175;SDS011;1094;49.902;10.876;2022-09-01T07:16:53;4.30;;;2.75;;
2175;SDS011;1094;49.902;10.876;2022-09-01T07:19:21;4.30;;;2.28;;
2175;SDS011;1094;49.902;10.876;2022-09-01T07:21:47;5.03;;;2.40;;
2175;SDS011;1094;49.902;10.876;2022-09-01T07:24:13;1.80;;;1.60;;
2175;SDS011;1094;49.902;10.876;2022-09-01T07:26:42;2.90;;;2.10;;
2175;SDS011;1094;49.902;10.876;2022-09-01T07:29:08;2.73;;;1.93;;
2175;SDS011;1094;49.902;10.876;2022-09-01T07:31:36;2.70;;;1.70;;
2175;SDS011;1094;49.902;10.876;2022-09-01T07:34:05;2.43;;;1.80;;
2175;SDS011;1094;49.902;10.876;2022-09-01T07:36:36;2.90;;;1.87;;
2175;SDS011;1094;49.902;10.876;2022-09-01T07:39:02;1.93;;;1.67;;
2175;SDS011;1094;49.902;10.876;2022-09-01T07:41:28;3.47;;;1.80;;
2175;SDS011;1094;49.902;10.876;2022-09-01T07:43:54;2.43;;;1.87;;
2175;SDS011;1094;49.902;10.876;2022-09-01T07:46:21;4.10;;;1.80;;
2175;SDS011;1094;49.902;10.876;2022-09-01T07:48:48;4.23;;;2.20;;
2175;SDS011;1094;49.902;10.876;2022-09-01T07:51:15;3.40;;;2.13;;
2175;SDS011;1094;49.902;10.876;2022-09-01T07:53:44;3.70;;;2.23;;
2175;SDS011;1094;49.902;10.876;2022-09-01T07:56:12;5.23;;;2.20;;
2175;SDS011;1094;49.902;10.876;2022-09-01T07:58:39;2.50;;;1.93;;
2175;SDS011;1094;49.902;10.876;2022-09-01T08:01:09;3.20;;;1.97;;
2175;SDS011;1094;49.902;10.876;2022-09-01T08:03:35;3.37;;;2.13;;
2175;SDS011;1094;49.902;10.876;2022-09-01T08:06:03;3.30;;;1.80;;
2175;SDS011;1094;49.902;10.876;2022-09-01T08:08:30;5.03;;;2.07;;
2175;SDS011;1094;49.902;10.876;2022-09-01T08:10:56;2.37;;;1.90;;
2175;SDS011;1094;49.902;10.876;2022-09-01T08:13:22;2.80;;;1.80;;
2175;SDS011;1094;49.902;10.876;2022-09-01T08:15:48;2.60;;;1.90;;
2175;SDS011;1094;49.902;10.876;2022-09-01T08:18:15;3.00;;;2.10;;
2175;SDS011;1094;49.902;10.876;2022-09-01T08:20:41;2.13;;;1.53;;
2175;SDS011;1094;49.902;10.876;2022-09-01T08:23:15;2.20;;;1.70;;
2175;SDS011;1094;49.902;10.876;2022-09-01T08:25:42;3.40;;;1.83;;
2175;SDS011;1094;49.902;10.876;2022-09-01T08:28:08;6.57;;;2.03;;
2175;SDS011;1094;49.902;10.876;2022-09-01T08:30:34;1.90;;;1.67;;
2175;SDS011;1094;49.902;10.876;2022-09-01T08:33:02;2.80;;;1.70;;
2175;SDS011;1094;49.902;10.876;2022-09-01T08:35:28;1.87;;;1.50;;
2175;SDS011;1094;49.902;10.876;2022-09-01T08:37:54;2.63;;;1.80;;
2175;SDS011;1094;49.902;10.876;2022-09-01T08:40:20;2.10;;;1.80;;
2175;SDS011;1094;49.902;10.876;2022-09-01T08:45:24;1.50;;;1.40;;
2175;SDS011;1094;49.902;10.876;2022-09-01T08:47:53;2.03;;;1.80;;
2175;SDS011;1094;49.902;10.876;2022-09-01T08:50:20;3.20;;;1.77;;
2175;SDS011;1094;49.902;10.876;2022-09-01T08:52:50;3.00;;;1.90;;
2175;SDS011;1094;49.902;10.876;2022-09-01T08:55:21;1.50;;;1.40;;
2175;SDS011;1094;49.902;10.876;2022-09-01T08:57:51;3.00;;;2.17;;
2175;SDS011;1094;49.902;10.876;2022-09-01T09:00:20;3.10;;;1.63;;
2175;SDS011;1094;49.902;10.876;2022-09-01T09:02:53;2.80;;;1.90;;
2175;SDS011;1094;49.902;10.876;2022-09-01T09:05:37;1.70;;;1.43;;
2175;SDS011;1094;49.902;10.876;2022-09-01T09:11:05;1.90;;;1.80;;
2175;SDS011;1094;49.902;10.876;2022-09-01T09:16:23;2.87;;;1.90;;
2175;SDS011;1094;49.902;10.876;2022-09-01T09:18:55;2.00;;;1.70;;
2175;SDS011;1094;49.902;10.876;2022-09-01T09:21:32;2.97;;;1.80;;
2175;SDS011;1094;49.902;10.876;2022-09-01T09:24:22;2.37;;;1.97;;
2175;SDS011;1094;49.902;10.876;2022-09-01T09:27:03;4.13;;;2.43;;
2175;SDS011;1094;49.902;10.876;2022-09-01T09:29:29;2.73;;;1.77;;
2175;SDS011;1094;49.902;10.876;2022-09-01T09:32:05;2.20;;;1.87;;
2175;SDS011;1094;49.902;10.876;2022-09-01T09:34:33;3.40;;;2.10;;
2175;SDS011;1094;49.902;10.876;2022-09-01T09:37:01;2.47;;;2.20;;
2175;SDS011;1094;49.902;10.876;2022-09-01T09:39:41;2.57;;;2.00;;
2175;SDS011;1094;49.902;10.876;2022-09-01T09:42:09;4.47;;;2.20;;
2175;SDS011;1094;49.902;10.876;2022-09-01T09:44:42;3.00;;;2.70;;
2175;SDS011;1094;49.902;10.876;2022-09-01T09:47:32;2.80;;;2.47;;
2175;SDS011;1094;49.902;10.876;2022-09-01T09:52:41;2.90;;;2.70;;
2175;SDS011;1094;49.902;10.876;2022-09-01T09:57:45;4.23;;;3.00;;
2175;SDS011;1094;49.902;10.876;2022-09-01T10:00:26;2.57;;;2.37;;
2175;SDS011;1094;49.902;10.876;2022-09-01T10:02:53;4.40;;;2.93;;
2175;SDS011;1094;49.902;10.876;2022-09-01T10:07:50;2.63;;;2.43;;
2175;SDS011;1094;49.902;10.876;2022-09-01T10:13:02;2.30;;;2.10;;
2175;SDS011;1094;49.902;10.876;2022-09-01T10:15:29;3.77;;;2.77;;
2175;SDS011;1094;49.902;10.876;2022-09-01T10:17:59;3.47;;;2.63;;
2175;SDS011;1094;49.902;10.876;2022-09-01T10:20:26;3.30;;;2.80;;
2175;SDS011;1094;49.902;10.876;2022-09-01T10:22:52;3.47;;;2.40;;
2175;SDS011;1094;49.902;10.876;2022-09-01T10:25:20;2.93;;;2.60;;
2175;SDS011;1094;49.902;10.876;2022-09-01T10:27:47;2.43;;;2.23;;
2175;SDS011;1094;49.902;10.876;2022-09-01T10:30:16;3.30;;;2.73;;
2175;SDS011;1094;49.902;10.876;2022-09-01T10:32:43;2.80;;;2.47;;
2175;SDS011;1094;49.902;10.876;2022-09-01T10:35:14;2.53;;;2.33;;
2175;SDS011;1094;49.902;10.876;2022-09-01T10:37:42;3.53;;;2.80;;
2175;SDS011;1094;49.902;10.876;2022-09-01T10:40:10;3.20;;;2.70;;
2175;SDS011;1094;49.902;10.876;2022-09-01T10:42:36;4.30;;;2.90;;
2175;SDS011;1094;49.902;10.876;2022-09-01T10:45:03;3.20;;;2.43;;
2175;SDS011;1094;49.902;10.876;2022-09-01T10:47:32;4.57;;;2.60;;
2175;SDS011;1094;49.902;10.876;2022-09-01T10:50:03;2.77;;;2.50;;
2175;SDS011;1094;49.902;10.876;2022-09-01T10:55:17;3.37;;;2.40;;
2175;SDS011;1094;49.902;10.876;2022-09-01T11:03:31;6.87;;;3.17;;
2175;SDS011;1094;49.902;10.876;2022-09-01T11:08:24;2.60;;;2.40;;
2175;SDS011;1094;49.902;10.876;2022-09-01T11:11:19;2.80;;;2.20;;
2175;SDS011;1094;49.902;10.876;2022-09-01T11:13:51;2.33;;;2.13;;
2175;SDS011;1094;49.902;10.876;2022-09-01T11:18:51;2.27;;;2.07;;
2175;SDS011;1094;49.902;10.876;2022-09-01T11:21:27;3.20;;;2.20;;
2175;SDS011;1094;49.902;10.876;2022-09-01T11:26:45;2.70;;;2.40;;
2175;SDS011;1094;49.902;10.876;2022-09-01T11:31:56;4.37;;;2.40;;
2175;SDS011;1094;49.902;10.876;2022-09-01T11:34:23;3.87;;;2.03;;
2175;SDS011;1094;49.902;10.876;2022-09-01T11:36:58;4.40;;;2.40;;
2175;SDS011;1094;49.902;10.876;2022-09-01T11:47:00;2.77;;;2.30;;
2175;SDS011;1094;49.902;10.876;2022-09-01T11:49:34;2.53;;;2.17;;
2175;SDS011;1094;49.902;10.876;2022-09-01T11:52:01;2.20;;;1.97;;
2175;SDS011;1094;49.902;10.876;2022-09-01T11:54:28;3.73;;;2.17;;
2175;SDS011;1094;49.902;10.876;2022-09-01T11:56:54;2.30;;;2.10;;
2175;SDS011;1094;49.902;10.876;2022-09-01T11:59:33;2.90;;;2.60;;
2175;SDS011;1094;49.902;10.876;2022-09-01T12:01:59;3.03;;;2.13;;
2175;SDS011;1094;49.902;10.876;2022-09-01T12:04:29;3.07;;;2.47;;
2175;SDS011;1094;49.902;10.876;2022-09-01T12:09:22;2.90;;;2.20;;
2175;SDS011;1094;49.902;10.876;2022-09-01T12:11:55;2.10;;;1.90;;
2175;SDS011;1094;49.902;10.876;2022-09-01T12:14:21;2.70;;;2.50;;
2175;SDS011;1094;49.902;10.876;2022-09-01T12:16:59;2.60;;;2.20;;
2175;SDS011;1094;49.902;10.876;2022-09-01T12:19:30;4.73;;;2.20;;
2175;SDS011;1094;49.902;10.876;2022-09-01T12:24:25;3.03;;;2.27;;
2175;SDS011;1094;49.902;10.876;2022-09-01T12:26:52;3.93;;;2.40;;
2175;SDS011;1094;49.902;10.876;2022-09-01T12:29:21;2.60;;;2.40;;
2175;SDS011;1094;49.902;10.876;2022-09-01T12:31:48;3.30;;;2.30;;
2175;SDS011;1094;49.902;10.876;2022-09-01T12:37:06;4.37;;;2.70;;
2175;SDS011;1094;49.902;10.876;2022-09-01T12:39:33;1.93;;;1.77;;
2175;SDS011;1094;49.902;10.876;2022-09-01T12:42:02;2.50;;;2.30;;
2175;SDS011;1094;49.902;10.876;2022-09-01T12:46:55;2.30;;;1.93;;
2175;SDS011;1094;49.902;10.876;2022-09-01T12:49:22;2.40;;;1.90;;
2175;SDS011;1094;49.902;10.876;2022-09-01T12:54:37;2.23;;;1.97;;
2175;SDS011;1094;49.902;10.876;2022-09-01T12:57:03;2.93;;;1.67;;
2175;SDS011;1094;49.902;10.876;2022-09-01T12:59:29;2.13;;;1.97;;
2175;SDS011;1094;49.902;10.876;2022-09-01T13:01:55;2.73;;;1.90;;
2175;SDS011;1094;49.902;10.876;2022-09-01T13:04:23;2.40;;;1.90;;
2175;SDS011;1094;49.902;10.876;2022-09-01T13:06:50;2.40;;;2.20;;
2175;SDS011;1094;49.902;10.876;2022-09-01T13:09:16;2.97;;;1.90;;
2175;SDS011;1094;49.902;10.876;2022-09-01T13:11:43;2.67;;;2.23;;
2175;SDS011;1094;49.902;10.876;2022-09-01T13:14:12;3.43;;;1.80;;
2175;SDS011;1094;49.902;10.876;2022-09-01T13:16:38;1.93;;;1.83;;
2175;SDS011;1094;49.902;10.876;2022-09-01T13:19:04;5.40;;;1.80;;
2175;SDS011;1094;49.902;10.876;2022-09-01T13:21:31;2.83;;;2.17;;
2175;SDS011;1094;49.902;10.876;2022-09-01T13:23:58;2.87;;;2.20;;
2175;SDS011;1094;49.902;10.876;2022-09-01T13:26:24;2.10;;;1.90;;
2175;SDS011;1094;49.902;10.876;2022-09-01T13:28:51;5.90;;;1.97;;
2175;SDS011;1094;49.902;10.876;2022-09-01T13:31:17;2.30;;;2.10;;
2175;SDS011;1094;49.902;10.876;2022-09-01T13:33:43;4.00;;;2.30;;
2175;SDS011;1094;49.902;10.876;2022-09-01T13:36:09;4.17;;;2.10;;
2175;SDS011;1094;49.902;10.876;2022-09-01T13:38:35;2.00;;;1.80;;
2175;SDS011;1094;49.902;10.876;2022-09-01T13:41:02;2.23;;;2.00;;
2175;SDS011;1094;49.902;10.876;2022-09-01T13:43:28;2.47;;;2.27;;
2175;SDS011;1094;49.902;10.876;2022-09-01T13:45:55;2.40;;;2.20;;
2175;SDS011;1094;49.902;10.876;2022-09-01T13:48:21;2.33;;;2.13;;
2175;SDS011;1094;49.902;10.876;2022-09-01T13:50:48;4.93;;;2.67;;
2175;SDS011;1094;49.902;10.876;2022-09-01T13:53:16;2.47;;;2.27;;
2175;SDS011;1094;49.902;10.876;2022-09-01T13:55:43;3.03;;;2.40;;
2175;SDS011;1094;49.902;10.876;2022-09-01T13:58:09;2.37;;;2.17;;
2175;SDS011;1094;49.902;10.876;2022-09-01T14:00:37;5.00;;;2.53;;
2175;SDS011;1094;49.902;10.876;2022-09-01T14:03:05;4.63;;;2.20;;
2175;SDS011;1094;49.902;10.876;2022-09-01T14:05:33;2.53;;;2.33;;
2175;SDS011;1094;49.902;10.876;2022-09-01T14:07:59;3.23;;;2.50;;
2175;SDS011;1094;49.902;10.876;2022-09-01T14:10:26;3.30;;;2.60;;
2175;SDS011;1094;49.902;10.876;2022-09-01T14:12:52;3.37;;;2.27;;
2175;SDS011;1094;49.902;10.876;2022-09-01T14:15:19;3.67;;;2.90;;
2175;SDS011;1094;49.902;10.876;2022-09-01T14:17:46;3.50;;;3.20;;
2175;SDS011;1094;49.902;10.876;2022-09-01T14:20:14;2.80;;;2.60;;
2175;SDS011;1094;49.902;10.876;2022-09-01T14:22:42;3.40;;;3.07;;
2175;SDS011;1094;49.902;10.876;2022-09-01T14:25:08;2.73;;;2.33;;
2175;SDS011;1094;49.902;10.876;2022-09-01T14:27:34;2.60;;;2.40;;
2175;SDS011;1094;49.902;10.876;2022-09-01T14:30:00;3.00;;;2.67;;
2175;SDS011;1094;49.902;10.876;2022-09-01T14:32:26;2.60;;;2.40;;
2175;SDS011;1094;49.902;10.876;2022-09-01T14:34:53;2.60;;;2.23;;
2175;SDS011;1094;49.902;10.876;2022-09-01T14:37:19;3.23;;;2.20;;
2175;SDS011;1094;49.902;10.876;2022-09-01T14:39:49;2.63;;;2.43;;
2175;SDS011;1094;49.902;10.876;2022-09-01T14:42:15;2.23;;;2.03;;
2175;SDS011;1094;49.902;10.876;2022-09-01T14:44:42;2.47;;;2.27;;
2175;SDS011;1094;49.902;10.876;2022-09-01T14:47:08;3.27;;;2.37;;
2175;SDS011;1094;49.902;10.876;2022-09-01T14:49:34;7.53;;;2.50;;
2175;SDS011;1094;49.902;10.876;2022-09-01T14:52:01;2.93;;;2.63;;
2175;SDS011;1094;49.902;10.876;2022-09-01T14:54:28;2.70;;;2.37;;
2175;SDS011;1094;49.902;10.876;2022-09-01T14:56:54;3.70;;;2.70;;
2175;SDS011;1094;49.902;10.876;2022-09-01T14:59:20;3.57;;;2.60;;
2175;SDS011;1094;49.902;10.876;2022-09-01T15:01:46;3.87;;;2.60;;
2175;SDS011;1094;49.902;10.876;2022-09-01T15:04:12;2.53;;;2.30;;
2175;SDS011;1094;49.902;10.876;2022-09-01T15:06:38;2.50;;;2.30;;
2175;SDS011;1094;49.902;10.876;2022-09-01T15:09:04;2.50;;;2.30;;
2175;SDS011;1094;49.902;10.876;2022-09-01T15:11:30;3.93;;;2.40;;
2175;SDS011;1094;49.902;10.876;2022-09-01T15:13:56;2.73;;;2.53;;
2175;SDS011;1094;49.902;10.876;2022-09-01T15:16:23;2.90;;;2.70;;
2175;SDS011;1094;49.902;10.876;2022-09-01T15:18:50;3.20;;;2.33;;
2175;SDS011;1094;49.902;10.876;2022-09-01T15:21:26;3.53;;;2.60;;
2175;SDS011;1094;49.902;10.876;2022-09-01T15:23:54;2.97;;;2.70;;
2175;SDS011;1094;49.902;10.876;2022-09-01T15:26:20;2.70;;;2.50;;
2175;SDS011;1094;49.902;10.876;2022-09-01T15:28:47;3.33;;;2.37;;
2175;SDS011;1094;49.902;10.876;2022-09-01T15:31:13;2.80;;;2.50;;
2175;SDS011;1094;49.902;10.876;2022-09-01T15:33:40;3.33;;;2.33;;
2175;SDS011;1094;49.902;10.876;2022-09-01T15:36:07;2.90;;;2.70;;
2175;SDS011;1094;49.902;10.876;2022-09-01T15:38:33;2.57;;;2.37;;
2175;SDS011;1094;49.902;10.876;2022-09-01T15:40:59;3.63;;;2.87;;
2175;SDS011;1094;49.902;10.876;2022-09-01T15:43:28;2.60;;;2.40;;
2175;SDS011;1094;49.902;10.876;2022-09-01T15:45:56;2.87;;;2.67;;
2175;SDS011;1094;49.902;10.876;2022-09-01T15:48:22;2.97;;;2.67;;
2175;SDS011;1094;49.902;10.876;2022-09-01T15:50:48;2.90;;;2.60;;
2175;SDS011;1094;49.902;10.876;2022-09-01T15:53:14;2.60;;;2.40;;
2175;SDS011;1094;49.902;10.876;2022-09-01T15:55:41;3.43;;;2.53;;
2175;SDS011;1094;49.902;10.876;2022-09-01T15:58:08;4.10;;;2.37;;
2175;SDS011;1094;49.902;10.876;2022-09-01T16:00:34;3.13;;;2.00;;
2175;SDS011;1094;49.902;10.876;2022-09-01T16:03:00;2.83;;;2.43;;
2175;SDS011;1094;49.902;10.876;2022-09-01T16:05:27;2.43;;;2.23;;
2175;SDS011;1094;49.902;10.876;2022-09-01T16:07:53;2.33;;;2.10;;
2175;SDS011;1094;49.902;10.876;2022-09-01T16:10:19;3.77;;;2.80;;
2175;SDS011;1094;49.902;10.876;2022-09-01T16:12:46;3.40;;;2.37;;
2175;SDS011;1094;49.902;10.876;2022-09-01T16:15:16;2.57;;;2.20;;